AFR601 TFFF-TFFR
Flight info
| Callsign | AFR601 |
|---|---|
| Flight time | 0h 33m |
| Altitude | 14000 |
| Route | DOM2R DOM DOM1A |
| Aircraft | A320/M-SDE2E3FGIJ1RWY/HB1 |
Departure
| Time | 2026-05-05 19:48 |
|---|---|
| Airport | Martinique Aimé Césaire International Airport (TFFF) |
Arrival
| Time | 2026-05-05 20:22 |
|---|---|
| Airport | Maryse Condé International Airport (TFFR) |
| Time | Latitude | Longitude | Altitude | Speed | Heading |
|---|---|---|---|---|---|
| 2026-05-05 19:12 | 14.59580 | -61.00211 | 46 ft | 0 kts | 63° |
| 2026-05-05 19:33 | 14.59573 | -61.00225 | 18 ft | 4 kts | 64° |
| 2026-05-05 19:33 | 14.59562 | -61.00251 | 20 ft | 4 kts | 72° |
| 2026-05-05 19:33 | 14.59556 | -61.00277 | 19 ft | 4 kts | 90° |
| 2026-05-05 19:34 | 14.59562 | -61.00300 | 20 ft | 3 kts | 147° |
| 2026-05-05 19:34 | 14.59569 | -61.00304 | 23 ft | 0 kts | 152° |
| 2026-05-05 19:36 | 14.59568 | -61.00303 | 23 ft | 1 kts | 152° |
| 2026-05-05 19:37 | 14.59546 | -61.00291 | 21 ft | 6 kts | 151° |
| 2026-05-05 19:37 | 14.59502 | -61.00262 | 20 ft | 9 kts | 142° |
| 2026-05-05 19:37 | 14.59444 | -61.00204 | 19 ft | 14 kts | 132° |
| 2026-05-05 19:37 | 14.59390 | -61.00119 | 20 ft | 15 kts | 111° |
| 2026-05-05 19:38 | 14.59354 | -61.00052 | 19 ft | 9 kts | 148° |
| 2026-05-05 19:38 | 14.59296 | -61.00040 | 20 ft | 8 kts | 172° |
| 2026-05-05 19:38 | 14.59278 | -61.00037 | 20 ft | 0 kts | 169° |
| 2026-05-05 19:38 | 14.59275 | -61.00036 | 20 ft | 1 kts | 169° |
| 2026-05-05 19:39 | 14.59262 | -61.00033 | 20 ft | 3 kts | 168° |
| 2026-05-05 19:39 | 14.59224 | -61.00026 | 20 ft | 8 kts | 170° |
| 2026-05-05 19:39 | 14.59155 | -61.00051 | 18 ft | 15 kts | 237° |
| 2026-05-05 19:39 | 14.59131 | -61.00173 | 16 ft | 18 kts | 259° |
| 2026-05-05 19:40 | 14.59109 | -61.00298 | 16 ft | 17 kts | 260° |
| 2026-05-05 19:40 | 14.59089 | -61.00419 | 17 ft | 17 kts | 261° |
| 2026-05-05 19:40 | 14.59069 | -61.00538 | 15 ft | 16 kts | 258° |
| 2026-05-05 19:40 | 14.59050 | -61.00644 | 18 ft | 14 kts | 260° |
| 2026-05-05 19:41 | 14.59036 | -61.00729 | 21 ft | 10 kts | 260° |
| 2026-05-05 19:41 | 14.59025 | -61.00791 | 22 ft | 8 kts | 259° |
| 2026-05-05 19:41 | 14.59013 | -61.00867 | 22 ft | 14 kts | 260° |
| 2026-05-05 19:41 | 14.58995 | -61.00986 | 22 ft | 20 kts | 265° |
| 2026-05-05 19:42 | 14.58968 | -61.01139 | 24 ft | 24 kts | 259° |
| 2026-05-05 19:42 | 14.58938 | -61.01304 | 25 ft | 22 kts | 259° |
| 2026-05-05 19:42 | 14.58912 | -61.01459 | 22 ft | 21 kts | 259° |
| 2026-05-05 19:42 | 14.58885 | -61.01608 | 20 ft | 21 kts | 261° |
| 2026-05-05 19:43 | 14.58870 | -61.01734 | 17 ft | 14 kts | 283° |
| 2026-05-05 19:43 | 14.58901 | -61.01807 | 17 ft | 7 kts | 260° |
| 2026-05-05 19:43 | 14.58900 | -61.01809 | 17 ft | 0 kts | 253° |
| 2026-05-05 19:47 | 14.58864 | -61.01818 | 16 ft | 9 kts | 164° |
| 2026-05-05 19:47 | 14.58861 | -61.01757 | 18 ft | 13 kts | 77° |
| 2026-05-05 19:48 | 14.58886 | -61.01614 | 20 ft | 52 kts | 80° |
| 2026-05-05 19:48 | 14.58988 | -61.01017 | 24 ft | 115 kts | 80° |
| 2026-05-05 19:48 | 14.59152 | -61.00036 | 131 ft | 153 kts | 80° |
| 2026-05-05 19:48 | 14.59343 | -60.98954 | 767 ft | 153 kts | 80° |
| 2026-05-05 19:49 | 14.59539 | -60.97875 | 1436 ft | 152 kts | 82° |
| 2026-05-05 19:49 | 14.59734 | -60.96775 | 1935 ft | 164 kts | 82° |
| 2026-05-05 19:49 | 14.59941 | -60.95535 | 2247 ft | 187 kts | 81° |
| 2026-05-05 19:49 | 14.60176 | -60.94118 | 2636 ft | 213 kts | 81° |
| 2026-05-05 19:50 | 14.60443 | -60.92526 | 3122 ft | 237 kts | 82° |
| 2026-05-05 19:50 | 14.60734 | -60.90799 | 3812 ft | 249 kts | 81° |
| 2026-05-05 19:50 | 14.61295 | -60.89092 | 4639 ft | 260 kts | 58° |
| 2026-05-05 19:50 | 14.62734 | -60.87914 | 5405 ft | 275 kts | 23° |
| 2026-05-05 19:51 | 14.64670 | -60.87739 | 6198 ft | 290 kts | 352° |
| 2026-05-05 19:51 | 14.66612 | -60.88386 | 6995 ft | 296 kts | 339° |
| 2026-05-05 19:51 | 14.68520 | -60.89189 | 7839 ft | 298 kts | 340° |
| 2026-05-05 19:51 | 14.70448 | -60.90004 | 8657 ft | 301 kts | 340° |
| 2026-05-05 19:52 | 14.72396 | -60.90827 | 9448 ft | 304 kts | 340° |
| 2026-05-05 19:52 | 14.74366 | -60.91552 | 10197 ft | 306 kts | 346° |
| 2026-05-05 19:52 | 14.76505 | -60.92083 | 10494 ft | 327 kts | 351° |
| 2026-05-05 19:52 | 14.78837 | -60.92513 | 10861 ft | 342 kts | 353° |
| 2026-05-05 19:53 | 14.81202 | -60.92904 | 11497 ft | 346 kts | 353° |
| 2026-05-05 19:53 | 14.83554 | -60.93299 | 12201 ft | 348 kts | 353° |
| 2026-05-05 19:53 | 14.85947 | -60.93726 | 12915 ft | 351 kts | 352° |
| 2026-05-05 19:53 | 14.88358 | -60.94183 | 13629 ft | 353 kts | 351° |
| 2026-05-05 19:54 | 14.90812 | -60.94668 | 13942 ft | 355 kts | 351° |
| 2026-05-05 19:54 | 14.93188 | -60.95189 | 14027 ft | 351 kts | 346° |
| 2026-05-05 19:54 | 14.95437 | -60.96133 | 14048 ft | 348 kts | 333° |
| 2026-05-05 19:54 | 14.97554 | -60.97332 | 14051 ft | 347 kts | 334° |
| 2026-05-05 19:55 | 14.99671 | -60.98522 | 14046 ft | 346 kts | 334° |
| 2026-05-05 19:55 | 15.01790 | -60.99708 | 14048 ft | 346 kts | 333° |
| 2026-05-05 19:55 | 15.03904 | -61.00887 | 14051 ft | 345 kts | 334° |
| 2026-05-05 19:55 | 15.06018 | -61.02065 | 14047 ft | 345 kts | 334° |
| 2026-05-05 19:56 | 15.08131 | -61.03246 | 14049 ft | 345 kts | 334° |
| 2026-05-05 19:56 | 15.10241 | -61.04425 | 14045 ft | 345 kts | 334° |
| 2026-05-05 19:56 | 15.12358 | -61.05607 | 14047 ft | 346 kts | 333° |
| 2026-05-05 19:56 | 15.14482 | -61.06795 | 14046 ft | 347 kts | 333° |
| 2026-05-05 19:57 | 15.16603 | -61.07984 | 14047 ft | 347 kts | 334° |
| 2026-05-05 19:57 | 15.18039 | -61.08788 | 14047 ft | 347 kts | 334° |
| 2026-05-05 19:57 | 15.20851 | -61.10364 | 14046 ft | 347 kts | 334° |
| 2026-05-05 19:57 | 15.22974 | -61.11551 | 14045 ft | 347 kts | 333° |
| 2026-05-05 19:58 | 15.25098 | -61.12738 | 14043 ft | 347 kts | 333° |
| 2026-05-05 19:58 | 15.27222 | -61.13923 | 14041 ft | 347 kts | 333° |
| 2026-05-05 19:58 | 15.29343 | -61.15111 | 14042 ft | 347 kts | 334° |
| 2026-05-05 19:58 | 15.31462 | -61.16301 | 14046 ft | 347 kts | 333° |
| 2026-05-05 19:59 | 15.33584 | -61.17494 | 14039 ft | 346 kts | 333° |
| 2026-05-05 19:59 | 15.35697 | -61.18682 | 14036 ft | 346 kts | 333° |
| 2026-05-05 19:59 | 15.37812 | -61.19869 | 14037 ft | 346 kts | 333° |
| 2026-05-05 19:59 | 15.39933 | -61.21058 | 14038 ft | 346 kts | 333° |
| 2026-05-05 20:00 | 15.42053 | -61.22243 | 14042 ft | 346 kts | 333° |
| 2026-05-05 20:00 | 15.44172 | -61.23427 | 14038 ft | 346 kts | 334° |
| 2026-05-05 20:00 | 15.46288 | -61.24613 | 14043 ft | 346 kts | 333° |
| 2026-05-05 20:00 | 15.48404 | -61.25803 | 14090 ft | 346 kts | 333° |
| 2026-05-05 20:01 | 15.50523 | -61.26994 | 14089 ft | 346 kts | 334° |
| 2026-05-05 20:01 | 15.52639 | -61.28182 | 14093 ft | 346 kts | 333° |
| 2026-05-05 20:01 | 15.54675 | -61.29522 | 14091 ft | 348 kts | 322° |
| 2026-05-05 20:01 | 15.56396 | -61.31280 | 14087 ft | 349 kts | 310° |
| 2026-05-05 20:02 | 15.57894 | -61.33267 | 14087 ft | 349 kts | 309° |
| 2026-05-05 20:02 | 15.59393 | -61.35249 | 14088 ft | 349 kts | 309° |
| 2026-05-05 20:02 | 15.60897 | -61.37229 | 14095 ft | 349 kts | 309° |
| 2026-05-05 20:02 | 15.62401 | -61.39205 | 14084 ft | 349 kts | 309° |
| 2026-05-05 20:03 | 15.63908 | -61.41186 | 14080 ft | 349 kts | 309° |
| 2026-05-05 20:03 | 15.65409 | -61.43166 | 14079 ft | 349 kts | 309° |
| 2026-05-05 20:03 | 15.66912 | -61.45149 | 14076 ft | 350 kts | 310° |
| 2026-05-05 20:03 | 15.68416 | -61.47132 | 14072 ft | 350 kts | 310° |
| 2026-05-05 20:04 | 15.69922 | -61.49117 | 14070 ft | 350 kts | 309° |
| 2026-05-05 20:04 | 15.71425 | -61.51105 | 14075 ft | 350 kts | 309° |
| 2026-05-05 20:04 | 15.72906 | -61.53063 | 14073 ft | 349 kts | 309° |
| 2026-05-05 20:04 | 15.74425 | -61.55070 | 14072 ft | 349 kts | 309° |
| 2026-05-05 20:05 | 15.75904 | -61.57024 | 14074 ft | 349 kts | 309° |
| 2026-05-05 20:05 | 15.77401 | -61.59001 | 14071 ft | 348 kts | 309° |
| 2026-05-05 20:05 | 15.78897 | -61.60980 | 14069 ft | 348 kts | 309° |
| 2026-05-05 20:05 | 15.80389 | -61.62956 | 14069 ft | 348 kts | 309° |
| 2026-05-05 20:06 | 15.81883 | -61.64932 | 14068 ft | 348 kts | 309° |
| 2026-05-05 20:06 | 15.83380 | -61.66911 | 14070 ft | 348 kts | 309° |
| 2026-05-05 20:06 | 15.84873 | -61.68883 | 14068 ft | 348 kts | 309° |
| 2026-05-05 20:06 | 15.86368 | -61.70861 | 14069 ft | 348 kts | 309° |
| 2026-05-05 20:07 | 15.87862 | -61.72838 | 14071 ft | 348 kts | 309° |
| 2026-05-05 20:07 | 15.89355 | -61.74818 | 14073 ft | 348 kts | 309° |
| 2026-05-05 20:07 | 15.90849 | -61.76796 | 14070 ft | 348 kts | 309° |
| 2026-05-05 20:07 | 15.92344 | -61.78775 | 14071 ft | 348 kts | 309° |
| 2026-05-05 20:08 | 15.93839 | -61.80754 | 14072 ft | 348 kts | 309° |
| 2026-05-05 20:08 | 15.95330 | -61.82731 | 14072 ft | 348 kts | 309° |
| 2026-05-05 20:08 | 15.96820 | -61.84709 | 14071 ft | 348 kts | 309° |
| 2026-05-05 20:08 | 15.98308 | -61.86689 | 14068 ft | 347 kts | 308° |
| 2026-05-05 20:09 | 15.99789 | -61.88658 | 13671 ft | 345 kts | 308° |
| 2026-05-05 20:09 | 16.01316 | -61.90576 | 13221 ft | 343 kts | 316° |
| 2026-05-05 20:09 | 16.03207 | -61.92044 | 12792 ft | 338 kts | 333° |
| 2026-05-05 20:09 | 16.05397 | -61.92888 | 12317 ft | 336 kts | 350° |
| 2026-05-05 20:10 | 16.07717 | -61.93075 | 11819 ft | 335 kts | 1° |
| 2026-05-05 20:10 | 16.10038 | -61.93068 | 11457 ft | 330 kts | 1° |
| 2026-05-05 20:10 | 16.12290 | -61.93066 | 11310 ft | 316 kts | 1° |
| 2026-05-05 20:10 | 16.14454 | -61.93065 | 10787 ft | 307 kts | 3° |
| 2026-05-05 20:11 | 16.16578 | -61.93064 | 10179 ft | 304 kts | 3° |
| 2026-05-05 20:11 | 16.18681 | -61.93063 | 9512 ft | 301 kts | 2° |
| 2026-05-05 20:11 | 16.20732 | -61.93065 | 8903 ft | 296 kts | 2° |
| 2026-05-05 20:11 | 16.22757 | -61.93067 | 8390 ft | 287 kts | 2° |
| 2026-05-05 20:12 | 16.24760 | -61.93047 | 7648 ft | 287 kts | 7° |
| 2026-05-05 20:12 | 16.26696 | -61.92629 | 6938 ft | 283 kts | 24° |
| 2026-05-05 20:12 | 16.28403 | -61.91659 | 6230 ft | 278 kts | 41° |
| 2026-05-05 20:12 | 16.29736 | -61.90246 | 5509 ft | 271 kts | 58° |
| 2026-05-05 20:13 | 16.30699 | -61.88584 | 4825 ft | 267 kts | 62° |
| 2026-05-05 20:13 | 16.31627 | -61.86930 | 4127 ft | 264 kts | 62° |
| 2026-05-05 20:13 | 16.32544 | -61.85297 | 3621 ft | 254 kts | 61° |
| 2026-05-05 20:13 | 16.33392 | -61.83792 | 3591 ft | 227 kts | 62° |
| 2026-05-05 20:14 | 16.34161 | -61.82425 | 3598 ft | 215 kts | 62° |
| 2026-05-05 20:14 | 16.34906 | -61.81094 | 3597 ft | 212 kts | 62° |
| 2026-05-05 20:14 | 16.35643 | -61.79771 | 3600 ft | 212 kts | 62° |
| 2026-05-05 20:14 | 16.36381 | -61.78442 | 3595 ft | 213 kts | 62° |
| 2026-05-05 20:15 | 16.37128 | -61.77101 | 3595 ft | 215 kts | 63° |
| 2026-05-05 20:15 | 16.37876 | -61.75756 | 3598 ft | 216 kts | 62° |
| 2026-05-05 20:15 | 16.38633 | -61.74395 | 3603 ft | 217 kts | 63° |
| 2026-05-05 20:15 | 16.39250 | -61.72973 | 3600 ft | 214 kts | 82° |
| 2026-05-05 20:16 | 16.39161 | -61.71476 | 3601 ft | 208 kts | 110° |
| 2026-05-05 20:16 | 16.38381 | -61.70222 | 3399 ft | 207 kts | 138° |
| 2026-05-05 20:16 | 16.37142 | -61.69571 | 3141 ft | 196 kts | 163° |
| 2026-05-05 20:16 | 16.35872 | -61.69253 | 2892 ft | 179 kts | 163° |
| 2026-05-05 20:17 | 16.34718 | -61.68955 | 2678 ft | 163 kts | 162° |
| 2026-05-05 20:17 | 16.33686 | -61.68685 | 2605 ft | 146 kts | 160° |
| 2026-05-05 20:17 | 16.32718 | -61.68429 | 2537 ft | 143 kts | 160° |
| 2026-05-05 20:17 | 16.31767 | -61.68176 | 2475 ft | 139 kts | 160° |
| 2026-05-05 20:18 | 16.30913 | -61.67756 | 2406 ft | 135 kts | 140° |
| 2026-05-05 20:18 | 16.30255 | -61.67072 | 2317 ft | 134 kts | 123° |
| 2026-05-05 20:18 | 16.29819 | -61.66228 | 2201 ft | 134 kts | 115° |
| 2026-05-05 20:18 | 16.29413 | -61.65355 | 2093 ft | 133 kts | 115° |
| 2026-05-05 20:19 | 16.29004 | -61.64480 | 1991 ft | 135 kts | 113° |
| 2026-05-05 20:19 | 16.28595 | -61.63603 | 1877 ft | 133 kts | 114° |
| 2026-05-05 20:19 | 16.28290 | -61.62708 | 1756 ft | 131 kts | 100° |
| 2026-05-05 20:19 | 16.28116 | -61.61752 | 1540 ft | 135 kts | 102° |
| 2026-05-05 20:20 | 16.27999 | -61.61118 | 1407 ft | 134 kts | 101° |
| 2026-05-05 20:20 | 16.27825 | -61.60175 | 1217 ft | 132 kts | 99° |
| 2026-05-05 20:20 | 16.27653 | -61.59241 | 1041 ft | 133 kts | 100° |
| 2026-05-05 20:20 | 16.27479 | -61.58294 | 868 ft | 137 kts | 101° |
| 2026-05-05 20:21 | 16.27296 | -61.57302 | 667 ft | 138 kts | 103° |
| 2026-05-05 20:21 | 16.27115 | -61.56321 | 448 ft | 138 kts | 101° |
| 2026-05-05 20:21 | 16.26936 | -61.55358 | 234 ft | 135 kts | 102° |
| 2026-05-05 20:21 | 16.26755 | -61.54430 | 48 ft | 128 kts | 99° |
| 2026-05-05 20:22 | 16.26597 | -61.53587 | 24 ft | 97 kts | 101° |
| 2026-05-05 20:22 | 16.26508 | -61.53072 | 20 ft | 48 kts | 100° |
| 2026-05-05 20:22 | 16.26475 | -61.52886 | 22 ft | 16 kts | 100° |
| 2026-05-05 20:22 | 16.26456 | -61.52768 | 20 ft | 17 kts | 99° |
| 2026-05-05 20:23 | 16.26432 | -61.52640 | 22 ft | 19 kts | 101° |
| 2026-05-05 20:23 | 16.26406 | -61.52504 | 21 ft | 19 kts | 101° |
| 2026-05-05 20:23 | 16.26382 | -61.52374 | 25 ft | 18 kts | 101° |
| 2026-05-05 20:23 | 16.26375 | -61.52251 | 27 ft | 17 kts | 62° |
| 2026-05-05 20:24 | 16.26472 | -61.52222 | 28 ft | 1 kts | 11° |
| 2026-05-05 20:27 | 16.26479 | -61.52220 | 29 ft | 5 kts | 11° |
| 2026-05-05 20:27 | 16.26555 | -61.52205 | 22 ft | 17 kts | 11° |
| 2026-05-05 20:28 | 16.26680 | -61.52185 | 21 ft | 17 kts | 352° |
| 2026-05-05 20:28 | 16.26736 | -61.52269 | 22 ft | 12 kts | 282° |
| 2026-05-05 20:28 | 16.26751 | -61.52352 | 24 ft | 11 kts | 281° |
| 2026-05-05 20:28 | 16.26765 | -61.52428 | 22 ft | 9 kts | 280° |
| 2026-05-05 20:29 | 16.26795 | -61.52470 | 21 ft | 7 kts | 353° |
| 2026-05-05 20:29 | 16.26839 | -61.52464 | 23 ft | 4 kts | 9° |
| 2026-05-05 20:29 | 16.26865 | -61.52458 | 21 ft | 0 kts | 13° |